Terminal Aerodrome Forecast
Issued by NWS

Home | Current Version | Previous Version | Text Only | Print | Product List | Glossary On
Versions: 1 2 3 4 5 6 7 8 9 10 11 12 13 14 15 16 17 18
000
FTUS46 KSEW 271736
TAFHQM
TAF
KHQM 271736Z 2718/2818 20005KT P6SM BKN011 OVC250
     FM272000 14004KT P6SM BKN250
     FM272200 22010KT P6SM BKN250
     FM280000 22007KT P6SM BKN060 OVC140
     FM280500 18005KT 6SM BR BKN007 OVC030
     FM280800 16006KT 4SM -RA BR BKN007 OVC015=

USA.gov is the U.S. government's official web portal to all federal, state and local government web resources and services.